Time;durP1;ratioP1;P1;durP2;ratioP2;P2;SDS_P1;SDS_P2;PMS_P1;PMS_P2;Temp;Humidity;BMP_temperature;BMP_pressure;BME280_temperature;BME280_humidity;BME280_pressure;Samples;Min_cycle;Max_cycle;Signal;HPM_P1;HPM_P2
2022/02/26 00:02:28;;;;;;;12.30;6.70;;;;;;;0.88;60.31;100050.73;446982;1272;142209;-61
2022/02/26 00:12:34;;;;;;;12.60;7.40;;;;;;;0.45;60.90;100063.29;446161;1271;142055;-62
2022/02/26 00:22:40;;;;;;;13.60;6.90;;;;;;;0.08;61.56;100072.07;447034;1271;142429;-62
2022/02/26 00:32:45;;;;;;;15.50;8.60;;;;;;;-0.18;61.84;100086.30;446706;1273;142279;-62
2022/02/26 00:42:51;;;;;;;14.50;7.70;;;;;;;-0.30;62.73;100094.54;446202;1273;141762;-62
2022/02/26 00:52:57;;;;;;;14.20;7.50;;;;;;;-0.28;63.03;100098.65;446619;1273;144189;-62
2022/02/26 01:03:03;;;;;;;12.20;7.10;;;;;;;-0.29;63.39;100106.23;444551;1271;162274;-60
2022/02/26 01:13:09;;;;;;;15.00;7.50;;;;;;;-0.52;63.69;100105.77;446678;1273;143985;-60
2022/02/26 01:23:15;;;;;;;17.20;7.80;;;;;;;-0.80;63.97;100112.58;446600;1273;143445;-60
2022/02/26 01:33:21;;;;;;;19.70;9.60;;;;;;;-1.05;64.53;100120.35;446353;1272;143018;-60
2022/02/26 01:43:27;;;;;;;14.50;8.80;;;;;;;-1.26;64.92;100133.40;446992;1269;146329;-60
2022/02/26 01:53:33;;;;;;;16.60;9.00;;;;;;;-1.48;65.32;100144.17;446411;1273;142193;-60
2022/02/26 02:03:39;;;;;;;17.80;10.20;;;;;;;-1.54;65.95;100149.86;446220;1272;142990;-61
2022/02/26 02:13:47;;;;;;;16.90;8.50;;;;;;;-1.58;66.46;100154.69;437733;1271;141801;-61
2022/02/26 02:23:53;;;;;;;16.60;9.50;;;;;;;-1.52;66.92;100163.58;440654;1271;143394;-61
2022/02/26 02:33:59;;;;;;;18.10;9.30;;;;;;;-1.11;66.91;100172.63;446137;1271;158011;-59
2022/02/26 02:44:06;;;;;;;16.80;9.30;;;;;;;-0.70;67.02;100184.54;447004;1271;142773;-59
2022/02/26 02:54:10;;;;;;;;;;;;;;;-0.46;66.91;100196.02;443013;1273;144313;-59
2022/02/26 03:04:16;;;;;;;15.00;10.40;;;;;;;-0.23;66.68;100203.90;431602;1272;128775;-58
2022/02/26 03:14:22;;;;;;;22.40;10.40;;;;;;;-0.01;66.94;100208.17;436083;1271;142787;-58
2022/02/26 03:24:28;;;;;;;17.10;11.30;;;;;;;0.16;66.62;100211.60;445199;1271;143205;-60
2022/02/26 03:34:34;;;;;;;24.60;11.10;;;;;;;0.32;66.58;100226.57;447071;1271;143138;-59
2022/02/26 03:44:42;;;;;;;18.50;10.30;;;;;;;0.44;66.61;100237.29;441888;1271;143002;-63
2022/02/26 03:54:49;;;;;;;19.60;10.80;;;;;;;0.58;66.76;100246.95;446439;1271;143535;-65
2022/02/26 04:04:55;;;;;;;19.00;11.20;;;;;;;0.65;66.65;100264.27;447169;1271;143164;-65
2022/02/26 04:15:01;;;;;;;25.10;11.40;;;;;;;0.67;66.70;100276.80;446609;1271;142012;-65
2022/02/26 04:25:08;;;;;;;17.10;10.80;;;;;;;0.74;66.90;100285.86;447085;1271;142680;-64
2022/02/26 04:35:14;;;;;;;22.80;14.60;;;;;;;0.69;66.88;100288.15;447138;1271;142442;-64
2022/02/26 04:45:20;;;;;;;28.00;14.90;;;;;;;0.62;66.90;100301.00;446412;1271;143447;-64
2022/02/26 04:55:26;;;;;;;28.80;15.90;;;;;;;0.60;67.06;100311.02;447164;1271;142698;-65
2022/02/26 05:05:32;;;;;;;27.50;15.00;;;;;;;0.51;67.46;100329.91;447166;1271;141958;-64
2022/02/26 05:15:38;;;;;;;17.30;11.90;;;;;;;0.53;67.81;100345.55;437549;1271;142294;-63
2022/02/26 05:25:44;;;;;;;21.20;12.50;;;;;;;0.57;68.12;100372.39;441553;1271;142773;-61
2022/02/26 05:35:50;;;;;;;17.00;10.60;;;;;;;0.62;68.04;100390.26;439957;1273;143370;-63
2022/02/26 05:45:56;;;;;;;21.20;11.70;;;;;;;0.69;68.48;100400.88;446338;1271;143927;-63
2022/02/26 05:56:03;;;;;;;23.20;11.20;;;;;;;0.74;68.58;100412.04;446864;1273;144120;-63
2022/02/26 06:06:08;;;;;;;20.30;11.90;;;;;;;0.85;68.51;100428.46;446286;1271;142341;-64
2022/02/26 06:16:14;;;;;;;13.70;9.30;;;;;;;0.96;68.82;100434.89;447221;1271;142765;-63
2022/02/26 06:26:20;;;;;;;13.60;9.00;;;;;;;1.01;68.97;100454.51;446915;1273;142902;-63
2022/02/26 06:36:26;;;;;;;21.90;13.50;;;;;;;1.14;69.21;100465.39;446155;1272;142409;-63
2022/02/26 06:46:35;;;;;;;22.80;13.00;;;;;;;1.37;69.35;100478.23;447150;1271;142729;-63
2022/02/26 06:56:41;;;;;;;22.90;14.20;;;;;;;1.79;69.07;100490.66;447133;1271;142680;-63
2022/02/26 07:06:47;;;;;;;20.30;11.20;;;;;;;2.47;68.83;100503.85;446382;1271;143360;-64
2022/02/26 07:16:53;;;;;;;20.40;8.50;;;;;;;4.58;67.72;100527.65;447164;1271;142228;-64
2022/02/26 07:26:58;;;;;;;14.30;9.00;;;;;;;4.96;65.33;100542.27;447034;1271;142155;-64
2022/02/26 07:37:05;;;;;;;16.50;11.10;;;;;;;4.51;64.88;100560.34;446816;1273;142658;-64
2022/02/26 07:47:11;;;;;;;16.40;10.60;;;;;;;3.84;65.15;100583.96;447061;1271;141925;-64
2022/02/26 07:57:17;;;;;;;20.10;10.90;;;;;;;3.51;65.90;100604.34;442796;1272;143466;-63
2022/02/26 08:07:23;;;;;;;22.90;11.40;;;;;;;3.41;66.36;100614.91;446814;1272;144232;-63
2022/02/26 08:17:30;;;;;;;23.10;11.00;;;;;;;3.48;66.87;100625.34;447077;1271;142644;-63
2022/02/26 08:27:36;;;;;;;13.10;8.60;;;;;;;3.69;66.62;100634.12;445924;1271;142557;-63
2022/02/26 08:37:46;;;;;;;16.70;10.10;;;;;;;3.97;66.69;100640.88;440708;1273;141940;-64
2022/02/26 08:47:52;;;;;;;15.30;9.10;;;;;;;4.26;66.29;100656.76;446636;1273;142276;-64
2022/02/26 08:57:58;;;;;;;14.30;10.30;;;;;;;4.36;66.52;100669.40;445933;1273;143021;-64
2022/02/26 09:08:05;;;;;;;10.80;9.20;;;;;;;4.10;66.48;100678.23;446835;1273;142719;-64
2022/02/26 09:18:10;;;;;;;14.50;10.40;;;;;;;4.19;66.44;100692.80;446347;1271;143053;-63
2022/02/26 09:28:16;;;;;;;13.60;11.60;;;;;;;4.31;66.60;100704.69;445541;1271;144937;-62
2022/02/26 09:38:22;;;;;;;17.20;11.30;;;;;;;4.47;66.41;100715.80;443597;1272;142713;-64
2022/02/26 09:48:29;;;;;;;18.70;11.70;;;;;;;4.73;66.17;100728.43;445950;1273;142893;-64
2022/02/26 09:58:34;;;;;;;17.70;10.70;;;;;;;4.91;65.91;100740.21;447157;1271;142291;-65
2022/02/26 10:08:43;;;;;;;14.50;11.10;;;;;;;5.32;65.69;100749.86;446978;1271;142795;-66
2022/02/26 10:18:55;;;;;;;17.40;10.80;;;;;;;5.80;64.89;100756.52;444151;1271;142792;-66
2022/02/26 10:29:12;;;;;;;13.50;10.00;;;;;;;5.93;64.35;100768.17;433163;1272;142214;-65
2022/02/26 10:39:29;;;;;;;20.70;13.60;;;;;;;6.38;63.64;100771.73;446132;1272;144247;-66
2022/02/26 10:49:40;;;;;;;13.20;11.50;;;;;;;6.71;63.23;100783.52;446932;1271;146104;-67
2022/02/26 10:59:52;;;;;;;13.60;9.50;;;;;;;6.97;62.05;100792.33;447205;1271;143377;-66
2022/02/26 11:10:01;;;;;;;12.00;9.20;;;;;;;6.90;61.33;100791.30;446465;1271;143117;-66
2022/02/26 11:20:15;;;;;;;10.70;8.50;;;;;;;6.91;61.17;100798.95;447189;1271;144328;-66
2022/02/26 11:30:30;;;;;;;10.40;8.70;;;;;;;6.79;60.83;100795.98;446483;1269;142426;-66
2022/02/26 11:40:36;;;;;;;11.40;9.00;;;;;;;6.73;60.59;100796.86;446983;1271;141232;-66
2022/02/26 11:50:42;;;;;;;10.30;7.70;;;;;;;6.70;60.57;100798.48;447116;1271;141495;-66
2022/02/26 12:00:52;;;;;;;13.80;8.80;;;;;;;6.68;60.24;100799.08;446421;1271;141620;-66
2022/02/26 12:10:58;;;;;;;6.90;5.10;;;;;;;6.63;59.97;100806.34;447150;1271;143504;-66
2022/02/26 12:21:11;;;;;;;13.90;7.20;;;;;;;6.38;58.89;100807.73;446068;1271;141827;-66
2022/02/26 12:31:24;;;;;;;10.30;7.80;;;;;;;6.44;59.54;100811.56;432400;1273;140896;-64
2022/02/26 12:41:35;;;;;;;13.60;7.80;;;;;;;6.38;59.85;100811.20;446827;1271;141766;-63
2022/02/26 12:52:03;;;;;;;8.10;6.90;;;;;;;6.00;60.14;100812.68;445846;1271;141236;-63
2022/02/26 13:02:10;;;;;;;7.70;6.60;;;;;;;5.69;59.65;100823.52;438392;1271;153436;-63
2022/02/26 13:12:16;;;;;;;6.60;5.70;;;;;;;5.34;59.81;100834.56;439715;1271;141426;-63
2022/02/26 13:22:23;;;;;;;11.20;6.50;;;;;;;5.14;60.13;100837.23;446861;1271;142070;-64
2022/02/26 13:32:29;;;;;;;12.80;7.70;;;;;;;5.08;60.74;100836.33;446954;1272;141424;-64
2022/02/26 13:42:37;;;;;;;15.90;10.00;;;;;;;5.07;60.92;100840.00;446384;1271;140953;-65
2022/02/26 13:52:47;;;;;;;9.00;7.40;;;;;;;5.00;61.09;100850.73;447155;1271;142531;-64
2022/02/26 14:03:02;;;;;;;13.00;8.20;;;;;;;4.82;61.36;100860.45;446949;1272;140541;-64
2022/02/26 14:13:16;;;;;;;11.50;8.10;;;;;;;4.73;61.53;100859.07;437559;1273;142467;-71
2022/02/26 14:23:22;;;;;;;13.80;8.70;;;;;;;4.68;62.12;100875.30;433730;1271;142213;-65
2022/02/26 14:33:28;;;;;;;13.20;9.00;;;;;;;4.56;61.91;100886.27;445089;1271;189786;-66
2022/02/26 14:43:34;;;;;;;8.70;6.80;;;;;;;4.49;62.37;100897.30;447121;1271;142051;-66
2022/02/26 14:53:43;;;;;;;7.60;6.20;;;;;;;4.43;62.17;100906.95;447097;1272;142774;-67
2022/02/26 15:03:49;;;;;;;12.00;7.80;;;;;;;4.17;61.88;100922.11;446211;1271;142637;-68
2022/02/26 15:13:55;;;;;;;12.00;8.40;;;;;;;3.79;62.90;100932.57;434505;1271;142697;-66
2022/02/26 15:24:02;;;;;;;18.60;11.70;;;;;;;3.40;63.44;100944.85;444733;1272;142411;-66
2022/02/26 15:34:08;;;;;;;17.10;11.50;;;;;;;3.09;64.00;100951.63;446871;1272;195601;-68
2022/02/26 15:44:14;;;;;;;27.30;15.50;;;;;;;2.87;64.58;100958.44;447174;1271;142340;-68
2022/02/26 15:54:20;;;;;;;28.60;14.70;;;;;;;2.66;65.03;100972.98;446486;1270;141933;-69
2022/02/26 16:04:26;;;;;;;23.70;13.80;;;;;;;2.42;65.84;100983.73;447171;1271;142198;-69
2022/02/26 16:14:31;;;;;;;19.00;13.50;;;;;;;2.20;66.52;100999.61;447045;1272;142188;-69
2022/02/26 16:24:37;;;;;;;24.10;13.90;;;;;;;1.98;67.03;101019.26;446192;1273;143838;-68
2022/02/26 16:34:44;;;;;;;20.60;12.00;;;;;;;1.82;67.70;101037.30;446961;1272;142029;-69
2022/02/26 16:44:50;;;;;;;18.50;12.00;;;;;;;1.77;68.27;101049.23;447086;1271;142445;-67
2022/02/26 16:54:58;;;;;;;24.90;15.80;;;;;;;1.84;68.67;101056.98;446350;1271;142673;-67
2022/02/26 17:05:08;;;;;;;19.10;14.20;;;;;;;1.94;69.05;101069.02;447215;1271;142498;-67
2022/02/26 17:15:14;;;;;;;20.90;15.70;;;;;;;2.03;69.20;101078.32;446394;1271;142398;-66
2022/02/26 17:25:20;;;;;;;20.50;15.00;;;;;;;2.09;69.38;101092.80;447066;1271;142141;-67
2022/02/26 17:35:29;;;;;;;27.60;18.40;;;;;;;2.14;69.67;101103.13;447112;1271;143789;-67
2022/02/26 17:45:43;;;;;;;28.90;19.20;;;;;;;2.17;69.63;101116.94;434704;1271;142104;-66
2022/02/26 17:55:50;;;;;;;38.10;23.40;;;;;;;2.18;69.70;101126.62;447040;1271;142580;-67
2022/02/26 18:05:56;;;;;;;42.80;25.50;;;;;;;2.25;70.01;101143.00;442519;1271;142128;-65
2022/02/26 18:16:01;;;;;;;43.20;24.90;;;;;;;2.30;70.09;101146.23;446924;1271;144517;-66
2022/02/26 18:26:10;;;;;;;39.70;25.70;;;;;;;2.27;70.04;101154.75;447252;1271;143490;-65
2022/02/26 18:36:17;;;;;;;57.80;38.40;;;;;;;2.12;70.14;101154.45;446443;1271;199218;-66
2022/02/26 18:46:22;;;;;;;57.50;38.60;;;;;;;1.89;70.30;101169.73;447145;1271;145455;-67
2022/02/26 18:56:29;;;;;;;41.80;28.20;;;;;;;1.69;70.64;101178.41;433504;1271;142469;-67
2022/02/26 19:06:35;;;;;;;49.40;28.60;;;;;;;1.48;70.86;101176.52;442261;1271;142761;-67
2022/02/26 19:16:41;;;;;;;39.80;24.00;;;;;;;1.14;70.93;101181.36;446269;1271;142886;-66
2022/02/26 19:26:47;;;;;;;45.40;26.20;;;;;;;0.80;71.11;101182.02;432182;1273;142193;-66
2022/02/26 19:36:53;;;;;;;50.10;25.90;;;;;;;0.35;71.37;101173.11;431021;1273;145816;-68
2022/02/26 19:46:59;;;;;;;55.10;27.90;;;;;;;-0.15;71.49;101187.33;439129;1273;144229;-67
2022/02/26 19:57:06;;;;;;;43.00;26.50;;;;;;;-0.58;72.02;101198.91;446138;1272;142692;-66
2022/02/26 20:07:12;;;;;;;48.40;25.40;;;;;;;-0.90;72.56;101205.17;446942;1272;143303;-67
2022/02/26 20:17:18;;;;;;;47.50;27.90;;;;;;;-1.19;72.76;101208.33;447001;1273;141997;-68
2022/02/26 20:27:24;;;;;;;50.70;28.10;;;;;;;-1.49;72.95;101217.61;446299;1271;142356;-67
2022/02/26 20:37:31;;;;;;;51.60;28.20;;;;;;;-1.78;73.43;101225.66;446949;1271;142382;-67
2022/02/26 20:47:36;;;;;;;;;;;;;;;-2.01;73.71;101242.53;447204;1271;142786;-68
2022/02/26 20:57:42;;;;;;;60.70;33.20;;;;;;;-2.21;73.84;101236.74;440531;1273;129262;-68
2022/02/26 21:07:51;;;;;;;60.00;30.90;;;;;;;-2.37;74.12;101230.84;446935;1272;142642;-68
2022/02/26 21:17:56;;;;;;;;;;;;;;;-2.51;74.61;101245.02;447006;1273;142040;-68
2022/02/26 21:28:02;;;;;;;68.70;34.30;;;;;;;-2.62;74.84;101252.55;447149;1271;128564;-67
2022/02/26 21:38:08;;;;;;;61.10;32.70;;;;;;;-2.77;75.20;101256.41;447139;1271;143551;-66
2022/02/26 21:48:14;;;;;;;57.70;35.40;;;;;;;-2.93;75.22;101254.59;446246;1273;142320;-67
2022/02/26 21:58:20;;;;;;;77.10;37.70;;;;;;;-3.06;75.39;101261.88;446916;1272;142189;-68
2022/02/26 22:08:25;;;;;;;52.30;27.10;;;;;;;-3.15;75.63;101273.17;430910;1273;144987;-67
2022/02/26 22:18:32;;;;;;;66.50;34.30;;;;;;;-3.30;75.94;101284.72;440116;1273;142927;-66
2022/02/26 22:28:38;;;;;;;69.90;38.80;;;;;;;-3.42;76.14;101291.32;430870;1273;143657;-68
2022/02/26 22:38:43;;;;;;;65.40;35.00;;;;;;;-3.53;76.31;101303.45;439651;1271;144494;-67
2022/02/26 22:48:49;;;;;;;74.00;39.70;;;;;;;-3.61;76.44;101306.33;446064;1271;143111;-68
2022/02/26 22:58:55;;;;;;;71.60;35.80;;;;;;;-3.67;76.40;101316.48;446622;1272;143255;-67
2022/02/26 23:09:01;;;;;;;80.50;40.80;;;;;;;-3.73;76.49;101322.14;446570;1270;143055;-65
2022/02/26 23:19:07;;;;;;;79.70;37.10;;;;;;;-3.77;76.56;101320.69;446833;1271;198037;-67
2022/02/26 23:29:13;;;;;;;68.60;32.90;;;;;;;-3.83;76.61;101332.02;446846;1270;145102;-67
2022/02/26 23:39:19;;;;;;;64.00;33.90;;;;;;;-3.87;76.58;101337.25;446152;1272;143235;-67
2022/02/26 23:49:25;;;;;;;75.10;35.00;;;;;;;-3.91;76.69;101338.88;447153;1271;143214;-68
2022/02/26 23:59:31;;;;;;;74.50;37.30;;;;;;;-3.97;76.65;101348.30;447125;1270;142244;-68
